Time;durP1;ratioP1;P1;durP2;ratioP2;P2;SDS_P1;SDS_P2;PMS_P1;PMS_P2;Temp;Humidity;BMP_temperature;BMP_pressure;BME280_temperature;BME280_humidity;BME280_pressure;Samples;Min_cycle;Max_cycle;Signal;HPM_P1;HPM_P2
2024/04/02 00:01:53;;;;;;;1.60;0.70;;;;;;;7.59;74.28;94602.06;5091347;28;20184;-79
2024/04/02 00:04:19;;;;;;;0.50;0.50;;;;;;;7.61;74.20;94600.97;5095556;28;20645;-78
2024/04/02 00:06:45;;;;;;;2.77;0.70;;;;;;;7.84;73.60;94605.59;5085320;28;20626;-78
2024/04/02 00:09:10;;;;;;;0.93;0.50;;;;;;;7.82;73.11;94599.78;5092077;28;20280;-78
2024/04/02 00:11:36;;;;;;;1.47;0.40;;;;;;;8.02;72.54;94608.91;5058933;28;20216;-77
2024/04/02 00:14:01;;;;;;;2.77;0.60;;;;;;;8.16;71.74;94602.38;5065495;28;20212;-78
2024/04/02 00:16:27;;;;;;;1.40;0.40;;;;;;;7.93;73.07;94612.44;5073050;28;20205;-78
2024/04/02 00:18:52;;;;;;;1.40;0.80;;;;;;;8.06;72.74;94615.41;5083134;28;20234;-78
2024/04/02 00:21:19;;;;;;;2.43;0.70;;;;;;;7.88;73.42;94612.09;5086199;28;20245;-78
2024/04/02 00:23:44;;;;;;;2.57;0.67;;;;;;;8.06;72.41;94623.16;5066920;28;20256;-78
2024/04/02 00:26:09;;;;;;;0.90;0.50;;;;;;;7.80;73.57;94627.56;5092400;28;20874;-78
2024/04/02 00:28:35;;;;;;;1.27;0.60;;;;;;;8.04;72.45;94625.09;5095409;28;20268;-78
2024/04/02 00:31:01;;;;;;;0.93;0.70;;;;;;;7.68;73.83;94624.41;5082779;28;20280;-79
2024/04/02 00:33:28;;;;;;;1.47;0.50;;;;;;;7.93;72.82;94631.34;5084988;28;20189;-78
2024/04/02 00:36:04;;;;;;;1.53;0.47;;;;;;;7.99;72.99;94635.09;5086177;28;20284;-78
2024/04/02 00:38:29;;;;;;;2.40;0.70;;;;;;;7.77;73.63;94639.00;5095519;28;20220;-79
2024/04/02 00:40:55;;;;;;;1.83;0.40;;;;;;;7.77;73.66;94638.19;5089648;28;20193;-78
2024/04/02 00:43:20;;;;;;;1.37;0.60;;;;;;;7.85;73.58;94640.81;5082521;28;20192;-78
2024/04/02 00:45:47;;;;;;;0.70;0.70;;;;;;;7.64;73.83;94636.81;5096080;28;20192;-78
2024/04/02 00:48:12;;;;;;;1.37;0.70;;;;;;;7.76;73.17;94641.72;5061856;28;20844;-78
2024/04/02 00:50:38;;;;;;;1.37;0.70;;;;;;;7.68;73.46;94650.25;5097424;28;20185;-78
2024/04/02 00:53:03;;;;;;;1.63;0.50;;;;;;;7.70;73.46;94647.53;5092909;28;20188;-78
2024/04/02 00:55:29;;;;;;;1.50;0.70;;;;;;;7.79;73.17;94654.38;5062678;28;20199;-78
2024/04/02 00:57:54;;;;;;;2.77;0.60;;;;;;;7.71;73.09;94649.16;5079889;28;20208;-78
2024/04/02 01:00:19;;;;;;;1.80;0.70;;;;;;;7.74;73.01;94646.25;5090806;28;20245;-78
2024/04/02 01:02:45;;;;;;;1.27;0.50;;;;;;;7.60;73.60;94661.34;5056519;28;20213;-78
2024/04/02 01:05:10;;;;;;;3.23;0.60;;;;;;;7.68;72.91;94658.00;5072889;28;20319;-78
2024/04/02 01:07:39;;;;;;;1.33;0.80;;;;;;;7.74;73.01;94656.59;5081959;28;20207;-78
2024/04/02 01:10:05;;;;;;;2.00;0.50;;;;;;;7.64;72.91;94664.44;5092041;28;20314;-78
2024/04/02 01:12:30;;;;;;;0.50;0.40;;;;;;;7.65;73.40;94660.88;5054271;28;20666;-79
2024/04/02 01:14:55;;;;;;;1.60;0.80;;;;;;;7.68;73.10;94655.41;5092811;28;20212;-78
2024/04/02 01:17:21;;;;;;;1.47;0.43;;;;;;;7.71;72.81;94664.66;5068570;28;20257;-79
2024/04/02 01:19:46;;;;;;;2.83;0.60;;;;;;;7.61;73.59;94668.16;5093824;28;20208;-78
2024/04/02 01:22:11;;;;;;;2.63;0.63;;;;;;;7.63;73.32;94671.38;5067707;28;20188;-78
2024/04/02 01:24:37;;;;;;;1.43;0.50;;;;;;;7.62;72.89;94676.72;5080385;28;20193;-78
2024/04/02 01:27:02;;;;;;;0.50;0.40;;;;;;;7.62;72.80;94677.50;5076313;28;20216;-78
2024/04/02 01:29:28;;;;;;;0.63;0.53;;;;;;;7.74;72.34;94680.66;5090965;28;20216;-78
2024/04/02 01:31:53;;;;;;;0.73;0.60;;;;;;;7.70;72.25;94689.69;5078792;28;20546;-78
2024/04/02 01:34:18;;;;;;;3.10;0.90;;;;;;;7.75;72.13;94697.78;5063705;28;20196;-79
2024/04/02 01:36:44;;;;;;;1.30;0.50;;;;;;;7.73;72.19;94701.50;5071998;28;20217;-78
2024/04/02 01:39:09;;;;;;;0.83;0.60;;;;;;;7.80;72.10;94697.34;5066769;28;20262;-78
2024/04/02 01:41:35;;;;;;;0.83;0.43;;;;;;;7.80;72.14;94700.75;5098269;28;20199;-78
2024/04/02 01:44:02;;;;;;;1.00;0.60;;;;;;;7.85;71.99;94702.84;5077621;28;20192;-78
2024/04/02 01:46:28;;;;;;;1.17;0.70;;;;;;;7.92;71.92;94714.22;5085289;28;20665;-78
2024/04/02 01:48:53;;;;;;;0.70;0.70;;;;;;;7.99;71.81;94723.00;5061897;28;20227;-78
2024/04/02 01:51:19;;;;;;;0.97;0.80;;;;;;;8.11;71.63;94716.59;5097095;28;20180;-78
2024/04/02 01:53:44;;;;;;;2.40;0.70;;;;;;;8.05;71.95;94719.81;5073191;28;20217;-78
2024/04/02 01:56:09;;;;;;;2.87;0.60;;;;;;;8.12;71.73;94723.38;5066647;28;20188;-78
2024/04/02 01:58:35;;;;;;;0.80;0.60;;;;;;;8.20;71.48;94728.59;5095857;28;20234;-78
2024/04/02 02:01:00;;;;;;;3.30;0.50;;;;;;;8.18;71.58;94735.72;5061917;28;20276;-79
2024/04/02 02:03:25;;;;;;;0.50;0.50;;;;;;;8.33;71.32;94740.34;5068415;28;20189;-78
2024/04/02 02:05:50;;;;;;;3.33;0.70;;;;;;;8.17;71.74;94736.69;5059646;28;20231;-78
2024/04/02 02:08:16;;;;;;;0.93;0.70;;;;;;;8.26;72.05;94747.06;5082427;28;20249;-78
2024/04/02 02:10:41;;;;;;;0.83;0.67;;;;;;;8.27;72.30;94753.88;5076349;28;20211;-78
2024/04/02 02:13:08;;;;;;;0.97;0.67;;;;;;;8.18;73.01;94751.22;5067931;28;20196;-78
2024/04/02 02:15:37;;;;;;;5.23;0.70;;;;;;;8.19;72.62;94741.69;5076986;28;20181;-78
2024/04/02 02:18:03;;;;;;;2.33;0.40;;;;;;;8.14;72.71;94744.75;5058699;28;20223;-79
2024/04/02 02:20:28;;;;;;;1.30;0.50;;;;;;;8.05;73.38;94750.84;5083203;28;20188;-77
2024/04/02 02:22:53;;;;;;;2.00;0.70;;;;;;;8.24;72.30;94749.81;5070362;28;20241;-79
2024/04/02 02:25:19;;;;;;;0.80;0.57;;;;;;;8.19;72.34;94749.47;5098970;28;20184;-78
2024/04/02 02:27:44;;;;;;;1.27;0.97;;;;;;;8.06;73.45;94751.66;5072501;28;20197;-79
2024/04/02 02:30:10;;;;;;;0.80;0.80;;;;;;;8.37;72.28;94750.25;5083104;28;20238;-78
2024/04/02 02:32:35;;;;;;;0.90;0.50;;;;;;;8.21;72.71;94750.09;5062613;28;20189;-78
2024/04/02 02:35:04;;;;;;;0.63;0.50;;;;;;;8.09;72.74;94751.34;5079747;28;20242;-78
2024/04/02 02:37:30;;;;;;;1.67;0.60;;;;;;;8.27;72.48;94753.88;5089709;28;20213;-78
2024/04/02 02:39:55;;;;;;;0.50;0.50;;;;;;;8.14;72.15;94760.28;5081358;28;20265;-78
2024/04/02 02:42:23;;;;;;;0.73;0.40;;;;;;;8.01;72.88;94759.84;5060137;28;20184;-78
2024/04/02 02:44:49;;;;;;;0.60;0.50;;;;;;;8.20;72.29;94764.81;5076420;28;20188;-79
2024/04/02 02:47:14;;;;;;;1.07;0.50;;;;;;;8.17;72.58;94770.31;5069710;28;20231;-78
2024/04/02 02:49:39;;;;;;;1.53;0.60;;;;;;;8.19;72.55;94759.81;5089992;28;20205;-78
2024/04/02 02:52:05;;;;;;;0.90;0.40;;;;;;;7.93;73.39;94758.00;5080613;28;20180;-78
2024/04/02 02:54:30;;;;;;;1.33;0.47;;;;;;;7.98;73.26;94752.41;5076440;28;20193;-78
2024/04/02 02:56:55;;;;;;;0.63;0.50;;;;;;;7.93;73.90;94760.59;5076578;28;20209;-78
2024/04/02 02:59:21;;;;;;;1.13;0.60;;;;;;;7.85;73.94;94759.72;5079682;28;20207;-78
2024/04/02 03:01:46;;;;;;;2.60;0.47;;;;;;;7.90;73.61;94766.06;5054788;28;20212;-78
2024/04/02 03:04:11;;;;;;;1.50;0.47;;;;;;;7.81;73.99;94768.75;5074400;28;20194;-77
2024/04/02 03:06:37;;;;;;;2.30;0.50;;;;;;;7.92;73.90;94771.09;5087855;28;20264;-77
2024/04/02 03:09:02;;;;;;;0.67;0.50;;;;;;;7.86;74.34;94769.09;5059379;28;20208;-77
2024/04/02 03:11:28;;;;;;;0.80;0.30;;;;;;;7.98;73.66;94773.09;5051199;28;20201;-77
2024/04/02 03:13:53;;;;;;;1.43;0.70;;;;;;;7.84;73.60;94768.44;5066672;28;20220;-77
2024/04/02 03:16:21;;;;;;;1.93;0.60;;;;;;;7.82;73.64;94775.53;5056549;28;20245;-77
2024/04/02 03:18:55;;;;;;;2.10;0.63;;;;;;;7.84;73.18;94777.00;5086485;28;20297;-77
2024/04/02 03:21:20;;;;;;;2.53;0.47;;;;;;;7.90;73.15;94779.00;5060982;28;20207;-78
2024/04/02 03:23:46;;;;;;;1.40;0.40;;;;;;;7.75;73.63;94782.25;5084762;28;20185;-77
2024/04/02 03:26:11;;;;;;;1.03;0.40;;;;;;;7.75;73.97;94783.06;5082889;28;20230;-77
2024/04/02 03:28:38;;;;;;;1.83;0.40;;;;;;;7.70;73.86;94780.13;5075179;28;20209;-77
2024/04/02 03:31:04;;;;;;;0.30;0.30;;;;;;;7.79;73.68;94784.41;5088473;28;20641;-77
2024/04/02 03:33:30;;;;;;;0.77;0.43;;;;;;;7.80;73.44;94788.63;5070089;28;20236;-76
2024/04/02 03:36:05;;;;;;;1.53;0.50;;;;;;;7.83;74.07;94796.06;5064029;28;20185;-77
2024/04/02 03:38:31;;;;;;;0.40;0.40;;;;;;;7.89;74.07;94794.66;5072646;28;20705;-77
2024/04/02 03:41:09;;;;;;;0.57;0.47;;;;;;;7.61;75.17;94801.69;5090858;28;20607;-77
2024/04/02 03:43:36;;;;;;;0.70;0.40;;;;;;;7.76;74.39;94794.22;5067335;28;20660;-77
2024/04/02 03:46:05;;;;;;;2.87;0.80;;;;;;;7.87;74.28;94805.16;5064281;28;20180;-77
2024/04/02 03:48:31;;;;;;;1.33;0.63;;;;;;;7.82;74.32;94796.22;5077777;28;20212;-78
2024/04/02 03:50:56;;;;;;;1.87;0.60;;;;;;;7.34;75.19;94802.56;5080239;28;20255;-78
2024/04/02 03:53:21;;;;;;;1.47;0.50;;;;;;;7.54;75.12;94798.88;5063437;28;20189;-78
2024/04/02 03:55:47;;;;;;;2.03;0.60;;;;;;;7.41;75.46;94790.66;5058056;28;20199;-78
2024/04/02 03:58:12;;;;;;;0.67;0.50;;;;;;;7.40;75.43;94796.78;5051797;28;20223;-77
2024/04/02 04:00:44;;;;;;;1.40;0.40;;;;;;;7.49;75.26;94795.91;5075441;28;20597;-78
2024/04/02 04:03:10;;;;;;;0.43;0.40;;;;;;;7.33;76.12;94795.75;5062115;28;20200;-77
2024/04/02 04:05:35;;;;;;;1.00;0.50;;;;;;;7.36;76.08;94800.66;5073035;28;20713;-78
2024/04/02 04:08:00;;;;;;;1.37;0.50;;;;;;;7.29;76.37;94815.09;5059704;28;20239;-78
2024/04/02 04:10:26;;;;;;;0.93;0.50;;;;;;;7.19;76.65;94809.97;5070600;28;20250;-77
2024/04/02 04:12:51;;;;;;;1.40;0.40;;;;;;;7.00;77.59;94810.91;5045082;28;20242;-77
2024/04/02 04:15:17;;;;;;;0.30;0.30;;;;;;;6.95;77.92;94822.59;5068757;28;20237;-78
2024/04/02 04:17:42;;;;;;;0.87;0.50;;;;;;;6.90;78.11;94828.22;5090102;28;20212;-78
2024/04/02 04:20:08;;;;;;;1.50;0.40;;;;;;;7.01;78.15;94830.59;5072698;28;20180;-78
2024/04/02 04:22:33;;;;;;;1.30;0.50;;;;;;;7.06;77.80;94830.97;5066019;28;20230;-77
2024/04/02 04:25:01;;;;;;;0.40;0.40;;;;;;;7.07;77.98;94824.88;5095357;28;20181;-78
2024/04/02 04:27:31;;;;;;;0.47;0.40;;;;;;;6.92;78.46;94828.06;5080749;28;20251;-78
2024/04/02 04:29:57;;;;;;;0.50;0.50;;;;;;;6.96;77.91;94837.94;5074963;28;20204;-78
2024/04/02 04:32:23;;;;;;;0.90;0.50;;;;;;;7.06;77.59;94843.88;5071940;28;20204;-77
2024/04/02 04:34:48;;;;;;;1.60;0.70;;;;;;;7.17;77.21;94847.25;5076279;28;20188;-77
2024/04/02 04:37:13;;;;;;;0.90;0.50;;;;;;;7.14;76.84;94845.75;5081229;28;20228;-78
2024/04/02 04:39:39;;;;;;;2.30;0.53;;;;;;;7.31;76.52;94846.75;5068343;28;20196;-78
2024/04/02 04:42:04;;;;;;;0.50;0.50;;;;;;;7.45;75.57;94850.63;5092862;28;20661;-77
2024/04/02 04:44:30;;;;;;;0.70;0.60;;;;;;;7.50;75.23;94853.56;5091034;28;20948;-78
2024/04/02 04:46:55;;;;;;;1.33;0.53;;;;;;;7.41;75.60;94850.06;5082851;28;20188;-77
2024/04/02 04:49:20;;;;;;;0.37;0.37;;;;;;;7.38;75.65;94850.38;5071809;28;20206;-77
2024/04/02 04:51:45;;;;;;;1.27;0.50;;;;;;;7.35;75.55;94850.69;5076544;28;20181;-78
2024/04/02 04:54:11;;;;;;;0.73;0.40;;;;;;;7.27;75.41;94853.97;5083293;28;20212;-78
2024/04/02 04:56:36;;;;;;;1.23;0.40;;;;;;;7.59;74.21;94855.28;5092807;28;20257;-78
2024/04/02 04:59:02;;;;;;;0.60;0.60;;;;;;;7.50;74.57;94861.31;5078820;28;20200;-78
2024/04/02 05:01:27;;;;;;;0.70;0.70;;;;;;;7.35;75.49;94863.59;5066097;28;20258;-77
2024/04/02 05:03:53;;;;;;;1.07;0.60;;;;;;;7.30;75.40;94860.63;5070597;28;20203;-78
2024/04/02 05:06:18;;;;;;;0.93;0.60;;;;;;;7.34;75.71;94867.13;5058198;28;20299;-78
2024/04/02 05:08:44;;;;;;;0.63;0.40;;;;;;;7.60;74.92;94875.81;5087688;28;20211;-77
2024/04/02 05:11:09;;;;;;;0.50;0.50;;;;;;;7.61;74.63;94867.09;5098586;28;20684;-78
2024/04/02 05:13:34;;;;;;;0.93;0.60;;;;;;;7.42;74.95;94876.72;5070147;28;20690;-78
2024/04/02 05:16:00;;;;;;;2.73;0.57;;;;;;;7.70;73.62;94877.53;5064370;28;20272;-78
2024/04/02 05:18:25;;;;;;;0.57;0.40;;;;;;;7.64;74.25;94876.34;5074520;28;20201;-78
2024/04/02 05:20:51;;;;;;;1.37;0.80;;;;;;;7.48;74.78;94883.91;5076784;28;20196;-77
2024/04/02 05:23:17;;;;;;;1.63;0.90;;;;;;;7.36;74.68;94888.47;5068356;28;20262;-78
2024/04/02 05:25:42;;;;;;;1.57;0.50;;;;;;;7.49;74.28;94893.28;5058130;28;20200;-77
2024/04/02 05:28:11;;;;;;;1.03;0.50;;;;;;;7.31;74.91;94890.66;5072969;28;20205;-77
2024/04/02 05:30:36;;;;;;;1.57;0.50;;;;;;;7.48;74.29;94892.47;5061343;28;20189;-78
2024/04/02 05:33:02;;;;;;;2.00;1.13;;;;;;;7.75;73.71;94890.81;5075683;28;20181;-77
2024/04/02 05:35:27;;;;;;;2.33;0.53;;;;;;;7.45;74.36;94897.13;5076601;28;20185;-77
2024/04/02 05:37:53;;;;;;;2.20;0.70;;;;;;;7.86;74.11;94906.09;5086565;28;20274;-77
2024/04/02 05:40:19;;;;;;;3.63;0.93;;;;;;;8.06;73.91;94917.13;5091391;28;20180;-78
2024/04/02 05:42:45;;;;;;;2.73;0.60;;;;;;;8.09;74.82;94911.66;5062574;28;20216;-78
2024/04/02 05:45:13;;;;;;;1.93;0.70;;;;;;;8.03;74.87;94918.22;5069248;28;20302;-78
2024/04/02 05:47:38;;;;;;;1.10;0.60;;;;;;;7.99;75.25;94927.25;5089571;28;20191;-78
2024/04/02 05:50:04;;;;;;;0.87;0.40;;;;;;;8.11;75.36;94933.81;5079003;28;20212;-77
2024/04/02 05:52:30;;;;;;;3.30;0.57;;;;;;;8.23;75.16;94937.84;5098971;28;20212;-78
2024/04/02 05:54:55;;;;;;;1.37;0.60;;;;;;;8.37;75.22;94940.88;5077293;28;20737;-78
2024/04/02 05:57:21;;;;;;;0.50;0.50;;;;;;;8.40;75.09;94956.13;5075876;28;20272;-77
2024/04/02 05:59:46;;;;;;;1.10;0.60;;;;;;;8.58;74.64;94951.75;5075707;28;20216;-77
2024/04/02 06:02:11;;;;;;;0.97;0.60;;;;;;;8.49;75.85;94950.06;5092086;28;20203;-78
2024/04/02 06:04:37;;;;;;;1.70;1.03;;;;;;;8.35;75.90;94959.13;5087694;28;20185;-77
2024/04/02 06:07:02;;;;;;;1.13;0.77;;;;;;;7.83;77.72;94952.94;5055216;28;20220;-78
2024/04/02 06:09:28;;;;;;;1.17;0.50;;;;;;;8.19;77.46;94964.94;5096014;28;20204;-78
2024/04/02 06:11:53;;;;;;;1.07;0.43;;;;;;;8.08;78.42;94962.56;5059662;28;20610;-77
2024/04/02 06:14:18;;;;;;;1.87;0.53;;;;;;;8.14;78.22;94963.78;5067879;28;20208;-78
2024/04/02 06:16:43;;;;;;;0.80;0.50;;;;;;;8.05;78.02;94972.41;5079193;28;20247;-77
2024/04/02 06:19:09;;;;;;;0.83;0.40;;;;;;;7.89;78.88;94979.03;5087740;28;20211;-78
2024/04/02 06:21:34;;;;;;;2.80;0.70;;;;;;;8.13;78.53;94986.22;5057529;28;20181;-78
2024/04/02 06:23:59;;;;;;;2.77;0.57;;;;;;;8.25;78.02;94994.59;5054589;28;20184;-79
2024/04/02 06:26:25;;;;;;;1.00;0.60;;;;;;;7.89;78.38;94983.38;5090878;28;20285;-78
2024/04/02 06:28:50;;;;;;;0.70;0.47;;;;;;;8.21;78.07;94981.13;5058953;28;20209;-78
2024/04/02 06:31:15;;;;;;;0.37;0.30;;;;;;;8.17;78.38;94989.31;5074582;28;20188;-78
2024/04/02 06:33:41;;;;;;;1.13;0.53;;;;;;;7.99;79.53;94988.50;5064175;28;20184;-78
2024/04/02 06:36:06;;;;;;;3.50;0.90;;;;;;;7.78;79.50;94996.50;5079099;28;20214;-78
2024/04/02 06:38:31;;;;;;;1.67;0.80;;;;;;;7.97;78.95;95001.56;5083867;28;20633;-78
2024/04/02 06:40:57;;;;;;;3.90;0.80;;;;;;;8.08;78.77;95001.34;5081594;28;20192;-78
2024/04/02 06:43:22;;;;;;;2.73;1.03;;;;;;;7.95;79.00;94998.28;5069306;28;20196;-78
2024/04/02 06:45:59;;;;;;;2.60;0.80;;;;;;;8.18;78.09;95004.69;5081505;28;20254;-78
2024/04/02 06:48:25;;;;;;;3.20;1.30;;;;;;;8.21;78.55;95004.38;5072495;28;20197;-79
2024/04/02 06:51:04;;;;;;;5.00;1.10;;;;;;;7.97;78.67;95001.56;5088433;28;20188;-79
2024/04/02 06:53:30;;;;;;;3.33;1.10;;;;;;;8.45;76.31;95001.28;5091019;28;20181;-79
2024/04/02 06:55:56;;;;;;;4.57;1.50;;;;;;;8.63;75.28;95003.03;5078547;28;20396;-79
2024/04/02 06:58:22;;;;;;;5.90;1.30;;;;;;;8.82;74.36;95000.28;5075776;28;20211;-78
2024/04/02 07:00:48;;;;;;;4.63;1.27;;;;;;;8.95;73.31;95002.50;5061820;28;20203;-79
2024/04/02 07:03:22;;;;;;;3.83;1.10;;;;;;;8.85;72.36;95012.13;5068251;28;20271;-79
2024/04/02 07:05:52;;;;;;;5.37;1.73;;;;;;;8.64;72.96;95008.06;5065920;28;20213;-78
2024/04/02 07:08:17;;;;;;;7.50;1.57;;;;;;;9.35;71.05;95007.94;5077761;28;20767;-79
2024/04/02 07:10:45;;;;;;;5.13;1.23;;;;;;;9.25;70.94;95020.19;5078074;28;20193;-78
2024/04/02 07:13:14;;;;;;;5.67;1.10;;;;;;;9.22;70.96;95017.91;5066781;28;20193;-79
2024/04/02 07:15:41;;;;;;;6.03;1.40;;;;;;;9.54;69.75;95019.03;5084427;28;20638;-79
2024/04/02 07:18:06;;;;;;;5.77;1.30;;;;;;;9.68;69.25;95025.44;5081262;28;20691;-79
2024/04/02 07:20:32;;;;;;;6.87;1.60;;;;;;;9.50;69.08;95018.56;5060702;28;20189;-77
2024/04/02 07:22:58;;;;;;;5.97;1.60;;;;;;;9.81;68.24;95013.69;5059971;28;20185;-78
2024/04/02 07:25:23;;;;;;;6.50;1.30;;;;;;;10.40;66.72;95019.72;5083126;28;20175;-77
2024/04/02 07:27:48;;;;;;;4.33;1.47;;;;;;;10.43;65.32;95016.84;5093869;28;20625;-78
2024/04/02 07:30:13;;;;;;;8.33;1.60;;;;;;;10.50;64.05;95019.59;5075830;28;20184;-78
2024/04/02 07:32:39;;;;;;;5.30;1.43;;;;;;;10.73;62.96;95023.19;5072608;28;20191;-78
2024/04/02 07:35:05;;;;;;;6.50;1.50;;;;;;;10.69;63.68;95034.06;5092680;28;20274;-79
2024/04/02 07:37:30;;;;;;;4.57;1.43;;;;;;;10.29;63.21;95025.22;5084407;28;20208;-78
2024/04/02 07:39:56;;;;;;;5.00;1.07;;;;;;;9.97;64.32;95028.50;5065100;28;20189;-78
2024/04/02 07:42:22;;;;;;;6.53;1.73;;;;;;;10.07;64.87;95033.53;5071443;28;20222;-78
2024/04/02 07:44:47;;;;;;;5.23;1.10;;;;;;;9.82;64.73;95036.06;5105402;28;20275;-78
2024/04/02 07:47:12;;;;;;;6.33;1.60;;;;;;;9.80;63.64;95032.78;5089135;28;20180;-78
2024/04/02 07:49:38;;;;;;;7.20;1.70;;;;;;;9.56;64.27;95035.28;5049712;28;20201;-79
2024/04/02 07:52:03;;;;;;;5.70;1.00;;;;;;;9.39;65.24;95039.56;5083184;28;20214;-79
2024/04/02 07:54:29;;;;;;;5.23;1.27;;;;;;;9.84;63.66;95035.91;5093701;28;20181;-78
2024/04/02 07:56:54;;;;;;;4.60;1.17;;;;;;;9.68;63.96;95041.81;5089316;28;20220;-79
2024/04/02 07:59:23;;;;;;;9.03;1.83;;;;;;;9.32;64.47;95046.31;5056018;28;20216;-78
2024/04/02 08:01:48;;;;;;;6.43;1.40;;;;;;;9.39;64.39;95043.94;5082104;28;20197;-78
2024/04/02 08:04:14;;;;;;;5.17;1.20;;;;;;;9.73;64.43;95057.75;5082730;28;20197;-79
2024/04/02 08:06:42;;;;;;;4.40;1.23;;;;;;;9.75;64.01;95055.78;5076845;28;20200;-78
2024/04/02 08:09:07;;;;;;;6.47;1.07;;;;;;;9.03;64.24;95051.78;5080058;28;20212;-78
2024/04/02 08:11:32;;;;;;;5.43;1.87;;;;;;;9.63;63.73;95057.84;5078769;28;20919;-79
2024/04/02 08:13:58;;;;;;;3.33;1.00;;;;;;;9.24;64.10;95059.19;5052224;28;20234;-79
2024/04/02 08:16:24;;;;;;;5.57;1.43;;;;;;;9.56;63.89;95074.97;5088783;28;20180;-79
2024/04/02 08:18:49;;;;;;;4.77;1.20;;;;;;;9.57;63.70;95075.78;5076276;28;20200;-79
2024/04/02 08:21:14;;;;;;;4.23;0.90;;;;;;;9.40;64.60;95084.41;5062361;28;20314;-79
2024/04/02 08:23:40;;;;;;;3.50;1.10;;;;;;;9.32;63.83;95090.34;5056587;28;20188;-79
2024/04/02 08:26:05;;;;;;;5.07;1.53;;;;;;;9.73;63.29;95094.03;5070573;28;20247;-79
2024/04/02 08:28:31;;;;;;;5.67;1.67;;;;;;;9.32;63.36;95075.63;5091350;28;20210;-79
2024/04/02 08:30:57;;;;;;;7.73;1.53;;;;;;;9.07;63.84;95097.13;5098387;28;20599;-79
2024/04/02 08:33:22;;;;;;;5.63;1.50;;;;;;;9.63;62.78;95093.34;5077708;28;20188;-78
2024/04/02 08:35:51;;;;;;;3.40;1.27;;;;;;;10.08;61.96;95097.47;5062442;28;20234;-78
2024/04/02 08:38:16;;;;;;;6.40;1.73;;;;;;;9.86;61.67;95091.81;5085715;28;20243;-76
2024/04/02 08:40:41;;;;;;;2.20;0.80;;;;;;;9.52;61.60;95094.38;5092982;28;20188;-77
2024/04/02 08:43:08;;;;;;;5.90;1.50;;;;;;;9.78;60.79;95088.38;5061571;28;20194;-77
2024/04/02 08:45:37;;;;;;;5.97;1.80;;;;;;;10.04;60.58;95102.13;5073894;28;20184;-77
2024/04/02 08:48:03;;;;;;;4.30;1.70;;;;;;;10.06;59.29;95109.75;5087479;28;20276;-77
2024/04/02 08:50:28;;;;;;;4.40;1.13;;;;;;;10.28;59.02;95098.88;5069721;28;20184;-77
2024/04/02 08:52:54;;;;;;;4.03;1.13;;;;;;;10.68;59.01;95102.53;5078992;28;20188;-78
2024/04/02 08:55:19;;;;;;;5.73;1.83;;;;;;;10.41;59.00;95099.22;5089640;28;20216;-78
2024/04/02 08:57:50;;;;;;;6.87;1.40;;;;;;;10.45;57.96;95107.53;5072734;28;20703;-78
2024/04/02 09:00:16;;;;;;;5.30;1.43;;;;;;;10.84;56.94;95110.38;5076242;28;20204;-79
2024/04/02 09:02:46;;;;;;;6.90;1.10;;;;;;;10.67;56.27;95113.91;5077815;28;20575;-79
2024/04/02 09:05:12;;;;;;;6.13;1.40;;;;;;;10.66;56.41;95118.28;5076009;28;20193;-78
2024/04/02 09:07:37;;;;;;;9.83;2.17;;;;;;;10.91;55.36;95119.16;5060706;28;20185;-79
2024/04/02 09:10:02;;;;;;;4.70;1.43;;;;;;;10.98;54.70;95108.94;5066730;28;20679;-79
2024/04/02 09:12:28;;;;;;;5.50;1.30;;;;;;;10.87;54.50;95110.06;5086928;28;20248;-81
2024/04/02 09:14:53;;;;;;;6.33;1.27;;;;;;;10.50;55.72;95119.03;5085957;28;20189;-78
2024/04/02 09:17:18;;;;;;;5.67;1.10;;;;;;;10.71;56.39;95115.22;5082946;28;20220;-79
2024/04/02 09:19:44;;;;;;;5.73;1.40;;;;;;;11.02;55.96;95129.25;5083955;28;20272;-78
2024/04/02 09:22:10;;;;;;;2.80;1.07;;;;;;;10.55;55.54;95117.78;5069169;28;20180;-78
2024/04/02 09:24:35;;;;;;;4.83;1.20;;;;;;;11.06;54.79;95125.34;5080173;28;20205;-78
2024/04/02 09:27:01;;;;;;;4.93;1.10;;;;;;;10.84;54.52;95132.94;5097588;28;20289;-77
2024/04/02 09:29:26;;;;;;;3.67;1.20;;;;;;;10.84;53.79;95131.16;5073269;28;20248;-77
2024/04/02 09:31:51;;;;;;;5.73;1.30;;;;;;;10.43;55.03;95125.84;5075486;28;20192;-78
2024/04/02 09:34:17;;;;;;;3.13;1.20;;;;;;;10.05;55.08;95134.06;5076755;28;20687;-78
2024/04/02 09:36:43;;;;;;;6.47;1.23;;;;;;;10.27;55.15;95130.16;5060583;28;20209;-78
2024/04/02 09:39:14;;;;;;;5.87;1.10;;;;;;;10.65;54.28;95134.03;5062172;28;20612;-78
2024/04/02 09:41:41;;;;;;;3.80;1.30;;;;;;;11.02;53.76;95134.44;5086546;28;20545;-78
2024/04/02 09:44:10;;;;;;;3.30;1.10;;;;;;;10.94;53.57;95133.59;5082687;28;20279;-77
2024/04/02 09:46:38;;;;;;;4.43;1.50;;;;;;;11.25;54.09;95136.41;5094461;28;20223;-78
2024/04/02 09:49:04;;;;;;;6.60;1.40;;;;;;;11.13;53.24;95145.47;5083724;28;20601;-78
2024/04/02 09:51:29;;;;;;;6.87;1.30;;;;;;;11.06;52.87;95148.75;5094926;28;20220;-77
2024/04/02 09:53:55;;;;;;;3.30;1.30;;;;;;;10.89;53.43;95133.28;5088633;28;20185;-78
2024/04/02 09:56:22;;;;;;;4.23;1.50;;;;;;;10.63;53.48;95147.19;5074556;28;20646;-77
2024/04/02 09:58:47;;;;;;;4.53;1.10;;;;;;;11.02;53.16;95131.84;5064100;28;20239;-77
2024/04/02 10:01:16;;;;;;;7.20;1.37;;;;;;;11.37;52.61;95127.31;5082240;28;20184;-78
2024/04/02 10:03:44;;;;;;;3.90;0.93;;;;;;;11.10;51.96;95136.22;5075401;28;20341;-77
2024/04/02 10:06:10;;;;;;;6.60;1.33;;;;;;;11.60;51.39;95136.09;5056707;28;20535;-78
2024/04/02 10:08:36;;;;;;;5.80;1.63;;;;;;;11.65;51.42;95133.00;5080162;28;20209;-77
2024/04/02 10:11:02;;;;;;;6.97;2.00;;;;;;;11.53;51.07;95126.50;5089156;28;20200;-77
2024/04/02 10:13:37;;;;;;;4.70;1.40;;;;;;;12.28;50.36;95131.41;5084414;28;20196;-77
2024/04/02 10:16:10;;;;;;;6.13;1.63;;;;;;;11.69;49.31;95149.09;5104581;28;20175;-77
2024/04/02 10:18:42;;;;;;;6.27;1.30;;;;;;;11.84;49.74;95142.28;5077504;28;20205;-77
2024/04/02 10:21:09;;;;;;;3.33;0.90;;;;;;;11.93;49.55;95143.06;5095450;28;20184;-77
2024/04/02 10:23:35;;;;;;;5.17;1.10;;;;;;;11.70;49.46;95135.91;5098695;28;20193;-77
2024/04/02 10:26:00;;;;;;;6.10;1.47;;;;;;;11.86;48.60;95140.31;5071650;28;20261;-78
2024/04/02 10:28:26;;;;;;;3.93;1.03;;;;;;;11.55;49.14;95134.94;5087550;28;20205;-79
2024/04/02 10:30:52;;;;;;;3.50;1.67;;;;;;;11.84;48.85;95124.06;5065740;28;20921;-78
2024/04/02 10:33:18;;;;;;;4.90;1.67;;;;;;;11.73;48.12;95135.59;5057877;28;20189;-78
2024/04/02 10:35:44;;;;;;;4.10;1.67;;;;;;;11.62;48.36;95128.94;5080896;28;20511;-78
2024/04/02 10:38:09;;;;;;;2.47;1.20;;;;;;;11.91;47.75;95133.63;5085281;28;20215;-78
2024/04/02 10:40:34;;;;;;;4.03;1.10;;;;;;;11.47;48.63;95140.97;5074371;28;20203;-78
2024/04/02 10:43:00;;;;;;;2.17;1.10;;;;;;;11.43;48.88;95131.88;5081329;28;20200;-78
2024/04/02 10:45:27;;;;;;;5.03;1.70;;;;;;;11.84;49.09;95129.28;5077950;28;20184;-78
2024/04/02 10:47:53;;;;;;;2.87;1.10;;;;;;;11.89;49.33;95132.19;5080516;28;20188;-78
2024/04/02 10:50:25;;;;;;;4.53;1.20;;;;;;;12.02;48.39;95137.69;5069988;28;20242;-78
2024/04/02 10:52:51;;;;;;;2.63;1.27;;;;;;;11.85;49.01;95128.31;5078028;28;20184;-79
2024/04/02 10:55:17;;;;;;;3.00;1.30;;;;;;;11.96;49.27;95140.97;5080709;28;20212;-78
2024/04/02 10:57:42;;;;;;;3.30;1.20;;;;;;;12.00;50.80;95144.84;5071713;28;20236;-79
2024/04/02 11:00:14;;;;;;;2.83;1.00;;;;;;;12.17;51.02;95132.59;5057387;28;20180;-78
2024/04/02 11:02:41;;;;;;;2.70;1.10;;;;;;;12.51;50.88;95142.72;5084635;28;20207;-78
2024/04/02 11:05:12;;;;;;;4.70;1.43;;;;;;;12.46;49.48;95137.25;5080275;28;20203;-78
2024/04/02 11:07:37;;;;;;;6.73;1.27;;;;;;;12.79;49.97;95143.09;5073482;28;20185;-78
2024/04/02 11:10:03;;;;;;;1.97;0.80;;;;;;;12.28;49.38;95147.88;5083815;28;20249;-78
2024/04/02 11:12:28;;;;;;;4.23;0.97;;;;;;;12.43;49.39;95142.75;5084561;28;20218;-79
2024/04/02 11:14:55;;;;;;;13.27;1.83;;;;;;;12.21;48.56;95143.50;5067930;28;20316;-78
2024/04/02 11:17:21;;;;;;;1.47;0.87;;;;;;;12.35;49.02;95151.41;5080659;28;20633;-79
2024/04/02 11:19:47;;;;;;;3.33;1.17;;;;;;;12.11;51.28;95167.13;5094485;28;20208;-79
2024/04/02 11:25:07;;;;;;;1.90;0.77;;;;;;;11.36;53.49;95167.28;5072944;28;20196;-78
2024/04/02 11:27:33;;;;;;;2.27;0.73;;;;;;;11.25;54.45;95162.41;5059545;28;20189;-79
2024/04/02 11:30:01;;;;;;;2.93;0.90;;;;;;;11.21;52.50;95158.50;5094177;28;20257;-79
2024/04/02 11:32:27;;;;;;;4.07;0.90;;;;;;;10.96;54.71;95161.06;5074622;28;20192;-78
2024/04/02 11:35:03;;;;;;;3.17;0.90;;;;;;;11.21;53.46;95158.50;5072107;28;20181;-78
2024/04/02 11:37:30;;;;;;;1.97;0.73;;;;;;;11.10;53.41;95158.81;5056252;28;20228;-78